Galt, California
Current Conditions -  °F | °C
As of 1:50 PM on Monday 20 Oct 2014 (Local Time) from KMHR Reporting Station
Overcast Overcast  
Wind Chill: 70°   Ceiling: 3200
Heat Index: 70°   Visibility: 10mi
Dew Point: 57°   Wind: 13mph
Humidity: 64%   Direction: 180°S
Pressure: 29.93"   Gusts: 18mph
Location:  38.25°N, 121.3°W
Report Text: KMHR 202050Z 18011G16KT 10SM OVC032 21/14 A2993
Loading
Personal Weather Stations






























Interactive Weather Map
Tropical Storm Tracking
New forecast layout! Learn more

10-Day Weather Forecast

Advertisements
Track Severe Weather on mobile